sensor_id;sensor_type;location;lat;lon;timestamp;pressure;altitude;pressure_sealevel;temperature;humidity
12785;BME280;6456;42.680;23.260;2023-02-28T00:01:04;95096.03;;;8.28;100.00
12785;BME280;6456;42.680;23.260;2023-02-28T00:03:32;95058.09;;;8.09;100.00
12785;BME280;6456;42.680;23.260;2023-02-28T00:06:01;95109.03;;;8.36;100.00
12785;BME280;6456;42.680;23.260;2023-02-28T00:08:27;95096.72;;;8.22;100.00
12785;BME280;6456;42.680;23.260;2023-02-28T00:10:54;95075.19;;;8.05;100.00
12785;BME280;6456;42.680;23.260;2023-02-28T00:13:21;95110.78;;;8.14;100.00
12785;BME280;6456;42.680;23.260;2023-02-28T00:15:58;95110.72;;;8.08;100.00
12785;BME280;6456;42.680;23.260;2023-02-28T00:18:25;95112.41;;;8.15;100.00
12785;BME280;6456;42.680;23.260;2023-02-28T00:20:53;95096.47;;;7.96;100.00
12785;BME280;6456;42.680;23.260;2023-02-28T00:23:20;95122.19;;;8.07;100.00
12785;BME280;6456;42.680;23.260;2023-02-28T00:25:47;95125.72;;;7.99;100.00
12785;BME280;6456;42.680;23.260;2023-02-28T00:28:14;95134.97;;;7.95;100.00
12785;BME280;6456;42.680;23.260;2023-02-28T00:30:40;95131.72;;;7.93;100.00
12785;BME280;6456;42.680;23.260;2023-02-28T00:33:07;95048.69;;;7.43;100.00
12785;BME280;6456;42.680;23.260;2023-02-28T00:35:34;95126.84;;;7.90;100.00
12785;BME280;6456;42.680;23.260;2023-02-28T00:38:02;95127.28;;;7.94;100.00
12785;BME280;6456;42.680;23.260;2023-02-28T00:40:29;95138.75;;;7.93;100.00
12785;BME280;6456;42.680;23.260;2023-02-28T00:42:57;95125.75;;;7.85;100.00
12785;BME280;6456;42.680;23.260;2023-02-28T00:45:24;95120.25;;;7.80;100.00
12785;BME280;6456;42.680;23.260;2023-02-28T00:47:50;95127.41;;;7.71;100.00
12785;BME280;6456;42.680;23.260;2023-02-28T00:50:18;95129.16;;;7.64;100.00
12785;BME280;6456;42.680;23.260;2023-02-28T00:52:45;95119.03;;;7.46;100.00
12785;BME280;6456;42.680;23.260;2023-02-28T00:55:14;95056.19;;;6.88;100.00
12785;BME280;6456;42.680;23.260;2023-02-28T00:57:40;95128.50;;;7.47;100.00
12785;BME280;6456;42.680;23.260;2023-02-28T01:00:08;95012.28;;;6.69;100.00
12785;BME280;6456;42.680;23.260;2023-02-28T01:02:36;95018.06;;;6.79;100.00
12785;BME280;6456;42.680;23.260;2023-02-28T01:05:04;95113.00;;;7.31;100.00
12785;BME280;6456;42.680;23.260;2023-02-28T01:07:30;95068.53;;;6.94;100.00
12785;BME280;6456;42.680;23.260;2023-02-28T01:09:57;95087.41;;;7.04;100.00
12785;BME280;6456;42.680;23.260;2023-02-28T01:12:26;95118.94;;;7.10;100.00
12785;BME280;6456;42.680;23.260;2023-02-28T01:14:52;95099.94;;;6.94;100.00
12785;BME280;6456;42.680;23.260;2023-02-28T01:17:19;95117.34;;;7.01;100.00
12785;BME280;6456;42.680;23.260;2023-02-28T01:19:46;95109.16;;;6.90;100.00
12785;BME280;6456;42.680;23.260;2023-02-28T01:22:13;95116.94;;;6.98;100.00
12785;BME280;6456;42.680;23.260;2023-02-28T01:24:40;95132.56;;;7.06;100.00
12785;BME280;6456;42.680;23.260;2023-02-28T01:27:06;95092.81;;;6.88;100.00
12785;BME280;6456;42.680;23.260;2023-02-28T01:29:35;95043.56;;;6.39;100.00
12785;BME280;6456;42.680;23.260;2023-02-28T01:32:01;95133.56;;;6.82;100.00
12785;BME280;6456;42.680;23.260;2023-02-28T01:34:28;95117.44;;;6.79;100.00
12785;BME280;6456;42.680;23.260;2023-02-28T01:36:55;95121.38;;;6.75;100.00
12785;BME280;6456;42.680;23.260;2023-02-28T01:39:24;95106.16;;;6.78;100.00
12785;BME280;6456;42.680;23.260;2023-02-28T01:41:51;95132.69;;;6.90;100.00
12785;BME280;6456;42.680;23.260;2023-02-28T01:44:58;95130.00;;;6.98;100.00
12785;BME280;6456;42.680;23.260;2023-02-28T01:47:29;95025.19;;;6.33;100.00
12785;BME280;6456;42.680;23.260;2023-02-28T01:49:57;95141.28;;;6.98;100.00
12785;BME280;6456;42.680;23.260;2023-02-28T01:52:25;95123.41;;;7.02;100.00
12785;BME280;6456;42.680;23.260;2023-02-28T01:54:55;95136.44;;;7.10;100.00
12785;BME280;6456;42.680;23.260;2023-02-28T01:57:26;95121.81;;;7.01;100.00
12785;BME280;6456;42.680;23.260;2023-02-28T01:59:58;95011.84;;;6.42;100.00
12785;BME280;6456;42.680;23.260;2023-02-28T02:02:28;95121.63;;;7.17;100.00
12785;BME280;6456;42.680;23.260;2023-02-28T02:04:59;95133.47;;;7.28;100.00
12785;BME280;6456;42.680;23.260;2023-02-28T02:07:29;95118.31;;;7.38;100.00
12785;BME280;6456;42.680;23.260;2023-02-28T02:10:04;95028.59;;;6.85;100.00
12785;BME280;6456;42.680;23.260;2023-02-28T02:12:52;95122.28;;;7.48;100.00
12785;BME280;6456;42.680;23.260;2023-02-28T02:15:28;95034.38;;;6.95;100.00
12785;BME280;6456;42.680;23.260;2023-02-28T02:18:03;95118.75;;;7.56;100.00
12785;BME280;6456;42.680;23.260;2023-02-28T02:20:51;95052.69;;;7.10;100.00
12785;BME280;6456;42.680;23.260;2023-02-28T02:23:55;95096.19;;;7.40;100.00
12785;BME280;6456;42.680;23.260;2023-02-28T02:26:55;95125.16;;;7.53;100.00
12785;BME280;6456;42.680;23.260;2023-02-28T02:29:57;95124.16;;;7.54;100.00
12785;BME280;6456;42.680;23.260;2023-02-28T02:32:53;95126.97;;;7.53;100.00
12785;BME280;6456;42.680;23.260;2023-02-28T02:35:35;95108.28;;;7.41;100.00
12785;BME280;6456;42.680;23.260;2023-02-28T02:38:09;95117.31;;;7.53;100.00
12785;BME280;6456;42.680;23.260;2023-02-28T02:40:43;95108.28;;;7.41;100.00
12785;BME280;6456;42.680;23.260;2023-02-28T02:43:17;95071.19;;;7.23;100.00
12785;BME280;6456;42.680;23.260;2023-02-28T02:45:48;95036.78;;;6.97;100.00
12785;BME280;6456;42.680;23.260;2023-02-28T02:48:19;95133.47;;;7.57;100.00
12785;BME280;6456;42.680;23.260;2023-02-28T02:50:50;95133.47;;;7.57;100.00
12785;BME280;6456;42.680;23.260;2023-02-28T02:53:22;95138.69;;;7.57;100.00
12785;BME280;6456;42.680;23.260;2023-02-28T02:55:52;95136.91;;;7.57;100.00
12785;BME280;6456;42.680;23.260;2023-02-28T02:58:24;95128.59;;;7.54;100.00
12785;BME280;6456;42.680;23.260;2023-02-28T03:00:53;95096.28;;;7.32;100.00
12785;BME280;6456;42.680;23.260;2023-02-28T03:03:22;95069.91;;;7.04;100.00
12785;BME280;6456;42.680;23.260;2023-02-28T03:05:56;95139.88;;;7.40;100.00
12785;BME280;6456;42.680;23.260;2023-02-28T03:08:24;95086.34;;;7.13;100.00
12785;BME280;6456;42.680;23.260;2023-02-28T03:10:51;94999.00;;;6.56;100.00
12785;BME280;6456;42.680;23.260;2023-02-28T03:13:37;95147.38;;;7.28;100.00
12785;BME280;6456;42.680;23.260;2023-02-28T03:19:04;95157.75;;;7.36;100.00
12785;BME280;6456;42.680;23.260;2023-02-28T03:21:39;95159.66;;;7.42;100.00
12785;BME280;6456;42.680;23.260;2023-02-28T03:24:11;95080.72;;;7.01;100.00
12785;BME280;6456;42.680;23.260;2023-02-28T03:26:46;95096.47;;;7.16;100.00
12785;BME280;6456;42.680;23.260;2023-02-28T03:29:21;95165.34;;;7.60;100.00
12785;BME280;6456;42.680;23.260;2023-02-28T03:31:53;95162.03;;;7.66;100.00
12785;BME280;6456;42.680;23.260;2023-02-28T03:34:25;95168.50;;;7.70;100.00
12785;BME280;6456;42.680;23.260;2023-02-28T03:36:59;95130.31;;;7.47;100.00
12785;BME280;6456;42.680;23.260;2023-02-28T03:39:34;95092.69;;;7.19;100.00
12785;BME280;6456;42.680;23.260;2023-02-28T03:42:06;95173.56;;;7.72;100.00
12785;BME280;6456;42.680;23.260;2023-02-28T03:44:38;95175.75;;;7.68;100.00
12785;BME280;6456;42.680;23.260;2023-02-28T03:47:09;95158.75;;;7.64;100.00
12785;BME280;6456;42.680;23.260;2023-02-28T03:49:40;95176.53;;;7.84;100.00
12785;BME280;6456;42.680;23.260;2023-02-28T03:52:12;95189.53;;;7.62;100.00
12785;BME280;6456;42.680;23.260;2023-02-28T03:54:42;95183.22;;;7.42;100.00
12785;BME280;6456;42.680;23.260;2023-02-28T03:57:15;95129.72;;;6.93;100.00
12785;BME280;6456;42.680;23.260;2023-02-28T03:59:47;95064.34;;;6.56;100.00
12785;BME280;6456;42.680;23.260;2023-02-28T04:02:16;95194.75;;;7.33;100.00
12785;BME280;6456;42.680;23.260;2023-02-28T04:04:44;95090.06;;;6.67;100.00
12785;BME280;6456;42.680;23.260;2023-02-28T04:07:15;95184.44;;;7.17;100.00
12785;BME280;6456;42.680;23.260;2023-02-28T04:09:42;95202.75;;;7.17;100.00
12785;BME280;6456;42.680;23.260;2023-02-28T04:12:09;95189.94;;;7.22;100.00
12785;BME280;6456;42.680;23.260;2023-02-28T04:14:36;95167.72;;;7.03;100.00
12785;BME280;6456;42.680;23.260;2023-02-28T04:17:03;95100.97;;;6.56;100.00
12785;BME280;6456;42.680;23.260;2023-02-28T04:19:30;95155.69;;;6.94;100.00
12785;BME280;6456;42.680;23.260;2023-02-28T04:21:57;95187.31;;;7.07;100.00
12785;BME280;6456;42.680;23.260;2023-02-28T04:24:26;95177.72;;;7.00;100.00
12785;BME280;6456;42.680;23.260;2023-02-28T04:26:55;95186.22;;;7.02;100.00
12785;BME280;6456;42.680;23.260;2023-02-28T04:29:24;95102.38;;;6.43;100.00
12785;BME280;6456;42.680;23.260;2023-02-28T04:31:52;95166.25;;;6.86;100.00
12785;BME280;6456;42.680;23.260;2023-02-28T04:34:20;95062.13;;;6.07;100.00
12785;BME280;6456;42.680;23.260;2023-02-28T04:36:47;95188.59;;;6.89;100.00
12785;BME280;6456;42.680;23.260;2023-02-28T04:39:16;95188.59;;;6.89;100.00
12785;BME280;6456;42.680;23.260;2023-02-28T04:41:45;95164.28;;;6.66;100.00
12785;BME280;6456;42.680;23.260;2023-02-28T04:44:12;95199.06;;;6.89;100.00
12785;BME280;6456;42.680;23.260;2023-02-28T04:46:39;95196.53;;;6.81;100.00
12785;BME280;6456;42.680;23.260;2023-02-28T04:49:06;95210.06;;;6.84;100.00
12785;BME280;6456;42.680;23.260;2023-02-28T04:51:34;95122.56;;;6.27;100.00
12785;BME280;6456;42.680;23.260;2023-02-28T04:54:01;95060.66;;;5.74;100.00
12785;BME280;6456;42.680;23.260;2023-02-28T04:56:28;95114.88;;;6.03;100.00
12785;BME280;6456;42.680;23.260;2023-02-28T04:58:56;95050.78;;;5.61;100.00
12785;BME280;6456;42.680;23.260;2023-02-28T05:01:25;95199.25;;;6.65;100.00
12785;BME280;6456;42.680;23.260;2023-02-28T05:03:53;95159.78;;;6.29;100.00
12785;BME280;6456;42.680;23.260;2023-02-28T05:06:23;95214.31;;;6.63;100.00
12785;BME280;6456;42.680;23.260;2023-02-28T05:08:50;95102.09;;;5.85;100.00
12785;BME280;6456;42.680;23.260;2023-02-28T05:11:19;95195.13;;;6.47;100.00
12785;BME280;6456;42.680;23.260;2023-02-28T05:13:46;95085.13;;;5.81;100.00
12785;BME280;6456;42.680;23.260;2023-02-28T05:16:15;95210.19;;;6.68;100.00
12785;BME280;6456;42.680;23.260;2023-02-28T05:18:42;95207.09;;;6.65;100.00
12785;BME280;6456;42.680;23.260;2023-02-28T05:21:23;95219.34;;;6.87;100.00
12785;BME280;6456;42.680;23.260;2023-02-28T05:23:50;95226.88;;;6.90;100.00
12785;BME280;6456;42.680;23.260;2023-02-28T05:26:17;95236.78;;;6.94;100.00
12785;BME280;6456;42.680;23.260;2023-02-28T05:28:44;95234.94;;;7.03;100.00
12785;BME280;6456;42.680;23.260;2023-02-28T05:31:11;95150.00;;;6.54;100.00
12785;BME280;6456;42.680;23.260;2023-02-28T05:33:39;95234.94;;;7.03;100.00
12785;BME280;6456;42.680;23.260;2023-02-28T05:36:07;95124.25;;;6.42;100.00
12785;BME280;6456;42.680;23.260;2023-02-28T05:38:34;95243.06;;;7.31;100.00
12785;BME280;6456;42.680;23.260;2023-02-28T05:41:05;95161.38;;;6.83;100.00
12785;BME280;6456;42.680;23.260;2023-02-28T05:43:32;95218.75;;;7.22;100.00
12785;BME280;6456;42.680;23.260;2023-02-28T05:45:59;95102.81;;;6.47;100.00
12785;BME280;6456;42.680;23.260;2023-02-28T05:48:26;95257.69;;;7.40;100.00
12785;BME280;6456;42.680;23.260;2023-02-28T05:50:54;95236.72;;;7.25;100.00
12785;BME280;6456;42.680;23.260;2023-02-28T05:53:21;95183.13;;;6.84;100.00
12785;BME280;6456;42.680;23.260;2023-02-28T05:55:47;95250.63;;;7.26;100.00
12785;BME280;6456;42.680;23.260;2023-02-28T05:58:14;95257.13;;;7.30;100.00
12785;BME280;6456;42.680;23.260;2023-02-28T06:00:41;95249.13;;;7.31;100.00
12785;BME280;6456;42.680;23.260;2023-02-28T06:03:08;95251.28;;;7.42;100.00
12785;BME280;6456;42.680;23.260;2023-02-28T06:05:34;95254.03;;;7.49;100.00
12785;BME280;6456;42.680;23.260;2023-02-28T06:08:03;95254.13;;;7.55;100.00
12785;BME280;6456;42.680;23.260;2023-02-28T06:10:32;95255.19;;;7.46;100.00
12785;BME280;6456;42.680;23.260;2023-02-28T06:12:59;95175.53;;;6.89;100.00
12785;BME280;6456;42.680;23.260;2023-02-28T06:15:28;95244.78;;;7.38;100.00
12785;BME280;6456;42.680;23.260;2023-02-28T06:17:55;95231.50;;;7.40;100.00
12785;BME280;6456;42.680;23.260;2023-02-28T06:20:23;95228.28;;;7.52;100.00
12785;BME280;6456;42.680;23.260;2023-02-28T06:22:51;95259.84;;;7.73;100.00
12785;BME280;6456;42.680;23.260;2023-02-28T06:25:21;95242.47;;;7.72;100.00
12785;BME280;6456;42.680;23.260;2023-02-28T06:27:48;95248.88;;;7.85;100.00
12785;BME280;6456;42.680;23.260;2023-02-28T06:30:16;95212.84;;;7.57;100.00
12785;BME280;6456;42.680;23.260;2023-02-28T06:32:43;95260.53;;;7.97;100.00
12785;BME280;6456;42.680;23.260;2023-02-28T06:35:10;95189.81;;;7.53;100.00
12785;BME280;6456;42.680;23.260;2023-02-28T06:37:37;95166.53;;;7.43;100.00
12785;BME280;6456;42.680;23.260;2023-02-28T06:40:04;95172.47;;;7.37;100.00
12785;BME280;6456;42.680;23.260;2023-02-28T06:42:34;95210.56;;;7.54;100.00
12785;BME280;6456;42.680;23.260;2023-02-28T06:45:01;95288.03;;;8.01;100.00
12785;BME280;6456;42.680;23.260;2023-02-28T06:47:34;95198.22;;;7.48;100.00
12785;BME280;6456;42.680;23.260;2023-02-28T06:50:01;95230.47;;;7.63;100.00
12785;BME280;6456;42.680;23.260;2023-02-28T06:52:29;95252.13;;;7.87;100.00
12785;BME280;6456;42.680;23.260;2023-02-28T06:54:55;95272.59;;;8.06;100.00
12785;BME280;6456;42.680;23.260;2023-02-28T06:57:27;95250.25;;;7.81;100.00
12785;BME280;6456;42.680;23.260;2023-02-28T06:59:58;95226.56;;;7.59;100.00
12785;BME280;6456;42.680;23.260;2023-02-28T07:02:25;95220.97;;;7.62;100.00
12785;BME280;6456;42.680;23.260;2023-02-28T07:04:52;95232.00;;;7.72;100.00
12785;BME280;6456;42.680;23.260;2023-02-28T07:07:18;95279.53;;;8.13;100.00
12785;BME280;6456;42.680;23.260;2023-02-28T07:09:45;95280.81;;;8.03;100.00
12785;BME280;6456;42.680;23.260;2023-02-28T07:12:12;95290.38;;;8.10;100.00
12785;BME280;6456;42.680;23.260;2023-02-28T07:14:39;95109.34;;;7.03;100.00
12785;BME280;6456;42.680;23.260;2023-02-28T07:17:08;95263.56;;;7.94;100.00
12785;BME280;6456;42.680;23.260;2023-02-28T07:19:37;95289.66;;;8.02;100.00
12785;BME280;6456;42.680;23.260;2023-02-28T07:22:04;95173.97;;;7.17;100.00
12785;BME280;6456;42.680;23.260;2023-02-28T07:24:31;95254.13;;;7.55;100.00
12785;BME280;6456;42.680;23.260;2023-02-28T07:26:58;95221.78;;;7.48;100.00
12785;BME280;6456;42.680;23.260;2023-02-28T07:29:25;95277.09;;;7.83;100.00
12785;BME280;6456;42.680;23.260;2023-02-28T07:31:52;95239.22;;;7.70;100.00
12785;BME280;6456;42.680;23.260;2023-02-28T07:34:20;95284.94;;;8.12;100.00
12785;BME280;6456;42.680;23.260;2023-02-28T07:36:47;95274.03;;;8.08;100.00
12785;BME280;6456;42.680;23.260;2023-02-28T07:39:19;95266.72;;;8.04;100.00
12785;BME280;6456;42.680;23.260;2023-02-28T07:41:45;95221.16;;;7.75;100.00
12785;BME280;6456;42.680;23.260;2023-02-28T07:44:12;95220.06;;;7.85;100.00
12785;BME280;6456;42.680;23.260;2023-02-28T07:46:39;95277.63;;;8.22;100.00
12785;BME280;6456;42.680;23.260;2023-02-28T07:49:06;95197.03;;;7.80;100.00
12785;BME280;6456;42.680;23.260;2023-02-28T07:51:35;95095.81;;;7.14;100.00
12785;BME280;6456;42.680;23.260;2023-02-28T07:54:02;95217.81;;;7.82;100.00
12785;BME280;6456;42.680;23.260;2023-02-28T07:56:29;95099.16;;;7.23;100.00
12785;BME280;6456;42.680;23.260;2023-02-28T07:58:56;95176.56;;;7.69;100.00
12785;BME280;6456;42.680;23.260;2023-02-28T08:01:24;95281.47;;;8.34;100.00
12785;BME280;6456;42.680;23.260;2023-02-28T08:03:51;95162.91;;;7.73;100.00
12785;BME280;6456;42.680;23.260;2023-02-28T08:06:22;95284.22;;;8.47;100.00
12785;BME280;6456;42.680;23.260;2023-02-28T08:08:51;95118.50;;;7.51;100.00
12785;BME280;6456;42.680;23.260;2023-02-28T08:11:18;95279.63;;;8.49;100.00
12785;BME280;6456;42.680;23.260;2023-02-28T08:13:45;95276.25;;;8.55;100.00
12785;BME280;6456;42.680;23.260;2023-02-28T08:16:13;95175.72;;;7.98;100.00
12785;BME280;6456;42.680;23.260;2023-02-28T08:18:46;95213.34;;;8.26;100.00
12785;BME280;6456;42.680;23.260;2023-02-28T08:21:13;95281.00;;;8.81;100.00
12785;BME280;6456;42.680;23.260;2023-02-28T08:23:40;95304.94;;;8.92;100.00
12785;BME280;6456;42.680;23.260;2023-02-28T08:26:08;95176.50;;;8.13;100.00
12785;BME280;6456;42.680;23.260;2023-02-28T08:28:35;95283.53;;;8.89;100.00
12785;BME280;6456;42.680;23.260;2023-02-28T08:31:08;95290.00;;;8.93;100.00
12785;BME280;6456;42.680;23.260;2023-02-28T08:33:36;95229.00;;;8.49;100.00
12785;BME280;6456;42.680;23.260;2023-02-28T08:36:05;95232.25;;;8.72;100.00
12785;BME280;6456;42.680;23.260;2023-02-28T08:38:34;95266.75;;;8.90;100.00
12785;BME280;6456;42.680;23.260;2023-02-28T08:41:03;95294.63;;;9.12;100.00
12785;BME280;6456;42.680;23.260;2023-02-28T08:43:33;95290.31;;;9.04;100.00
12785;BME280;6456;42.680;23.260;2023-02-28T08:45:59;95300.53;;;9.14;100.00
12785;BME280;6456;42.680;23.260;2023-02-28T08:48:28;95283.72;;;9.09;100.00
12785;BME280;6456;42.680;23.260;2023-02-28T08:50:56;95210.38;;;8.65;100.00
12785;BME280;6456;42.680;23.260;2023-02-28T08:53:23;95266.06;;;9.02;100.00
12785;BME280;6456;42.680;23.260;2023-02-28T08:55:57;95301.22;;;9.23;100.00
12785;BME280;6456;42.680;23.260;2023-02-28T08:58:25;95109.72;;;8.09;100.00
12785;BME280;6456;42.680;23.260;2023-02-28T09:00:53;95299.88;;;9.27;100.00
12785;BME280;6456;42.680;23.260;2023-02-28T09:03:21;95283.41;;;9.18;100.00
12785;BME280;6456;42.680;23.260;2023-02-28T09:05:53;95248.88;;;9.00;100.00
12785;BME280;6456;42.680;23.260;2023-02-28T09:08:20;95198.03;;;8.80;100.00
12785;BME280;6456;42.680;23.260;2023-02-28T09:10:47;95242.66;;;9.01;100.00
12785;BME280;6456;42.680;23.260;2023-02-28T09:13:14;95240.78;;;8.95;100.00
12785;BME280;6456;42.680;23.260;2023-02-28T09:15:41;95175.34;;;8.51;100.00
12785;BME280;6456;42.680;23.260;2023-02-28T09:18:09;95228.41;;;8.89;100.00
12785;BME280;6456;42.680;23.260;2023-02-28T09:20:37;95262.09;;;9.07;100.00
12785;BME280;6456;42.680;23.260;2023-02-28T09:23:05;95210.84;;;8.68;100.00
12785;BME280;6456;42.680;23.260;2023-02-28T09:25:32;95178.28;;;8.63;100.00
12785;BME280;6456;42.680;23.260;2023-02-28T09:27:59;95238.91;;;9.10;100.00
12785;BME280;6456;42.680;23.260;2023-02-28T09:30:26;95178.03;;;8.79;100.00
12785;BME280;6456;42.680;23.260;2023-02-28T09:32:53;95249.06;;;9.41;100.00
12785;BME280;6456;42.680;23.260;2023-02-28T09:35:22;95219.38;;;9.47;100.00
12785;BME280;6456;42.680;23.260;2023-02-28T09:37:50;95277.31;;;9.88;100.00
12785;BME280;6456;42.680;23.260;2023-02-28T09:40:18;95259.03;;;9.80;100.00
12785;BME280;6456;42.680;23.260;2023-02-28T09:42:47;95258.41;;;9.71;100.00
12785;BME280;6456;42.680;23.260;2023-02-28T09:45:22;95204.59;;;9.12;100.00
12785;BME280;6456;42.680;23.260;2023-02-28T09:47:52;95214.31;;;9.18;100.00
12785;BME280;6456;42.680;23.260;2023-02-28T09:50:30;95207.13;;;9.26;100.00
12785;BME280;6456;42.680;23.260;2023-02-28T09:53:03;95256.75;;;9.70;100.00
12785;BME280;6456;42.680;23.260;2023-02-28T09:55:37;95190.69;;;9.45;100.00
12785;BME280;6456;42.680;23.260;2023-02-28T09:58:17;95204.16;;;9.63;100.00
12785;BME280;6456;42.680;23.260;2023-02-28T10:00:50;95239.22;;;10.11;100.00
12785;BME280;6456;42.680;23.260;2023-02-28T10:03:29;95182.88;;;9.86;100.00
12785;BME280;6456;42.680;23.260;2023-02-28T10:06:03;95125.97;;;9.72;100.00
12785;BME280;6456;42.680;23.260;2023-02-28T10:08:37;95221.56;;;10.40;100.00
12785;BME280;6456;42.680;23.260;2023-02-28T10:11:12;95163.63;;;10.20;100.00
12785;BME280;6456;42.680;23.260;2023-02-28T10:13:50;95127.22;;;10.17;100.00
12785;BME280;6456;42.680;23.260;2023-02-28T10:16:23;95248.91;;;10.99;100.00
12785;BME280;6456;42.680;23.260;2023-02-28T10:18:54;95134.19;;;10.51;100.00
12785;BME280;6456;42.680;23.260;2023-02-28T10:21:28;95100.78;;;10.45;100.00
12785;BME280;6456;42.680;23.260;2023-02-28T10:24:03;95253.81;;;11.41;100.00
12785;BME280;6456;42.680;23.260;2023-02-28T10:26:32;95164.22;;;10.89;100.00
12785;BME280;6456;42.680;23.260;2023-02-28T10:29:00;95180.03;;;11.28;100.00
12785;BME280;6456;42.680;23.260;2023-02-28T10:31:28;95102.25;;;11.00;100.00
12785;BME280;6456;42.680;23.260;2023-02-28T10:33:55;95179.81;;;11.63;100.00
12785;BME280;6456;42.680;23.260;2023-02-28T10:36:22;95145.16;;;11.46;100.00
12785;BME280;6456;42.680;23.260;2023-02-28T10:38:50;95153.25;;;11.71;100.00
12785;BME280;6456;42.680;23.260;2023-02-28T10:41:29;95108.66;;;11.56;100.00
12785;BME280;6456;42.680;23.260;2023-02-28T10:44:14;95170.63;;;12.04;100.00
12785;BME280;6456;42.680;23.260;2023-02-28T10:46:42;95095.25;;;11.71;100.00
12785;BME280;6456;42.680;23.260;2023-02-28T10:49:15;95161.94;;;12.42;100.00
12785;BME280;6456;42.680;23.260;2023-02-28T10:51:44;95162.66;;;12.62;100.00
12785;BME280;6456;42.680;23.260;2023-02-28T10:54:22;95065.69;;;12.13;100.00
12785;BME280;6456;42.680;23.260;2023-02-28T10:57:05;95114.75;;;12.58;100.00
12785;BME280;6456;42.680;23.260;2023-02-28T10:59:32;95128.47;;;12.73;100.00
12785;BME280;6456;42.680;23.260;2023-02-28T11:01:59;95088.59;;;12.50;100.00
12785;BME280;6456;42.680;23.260;2023-02-28T11:04:34;95124.81;;;12.74;100.00
12785;BME280;6456;42.680;23.260;2023-02-28T11:07:05;95115.69;;;12.95;100.00
12785;BME280;6456;42.680;23.260;2023-02-28T11:09:35;95111.41;;;13.07;100.00
12785;BME280;6456;42.680;23.260;2023-02-28T11:12:06;95037.75;;;12.30;100.00
12785;BME280;6456;42.680;23.260;2023-02-28T11:14:39;95131.31;;;12.72;100.00
12785;BME280;6456;42.680;23.260;2023-02-28T11:17:18;95158.78;;;12.96;100.00
12785;BME280;6456;42.680;23.260;2023-02-28T11:19:48;95142.44;;;13.12;100.00
12785;BME280;6456;42.680;23.260;2023-02-28T11:22:18;95048.97;;;12.57;100.00
12785;BME280;6456;42.680;23.260;2023-02-28T11:24:49;95160.22;;;13.23;100.00
12785;BME280;6456;42.680;23.260;2023-02-28T11:27:25;95157.59;;;12.92;100.00
12785;BME280;6456;42.680;23.260;2023-02-28T11:29:53;95050.38;;;12.28;100.00
12785;BME280;6456;42.680;23.260;2023-02-28T11:32:21;95101.47;;;12.71;100.00
12785;BME280;6456;42.680;23.260;2023-02-28T11:35:01;95023.16;;;12.34;100.00
12785;BME280;6456;42.680;23.260;2023-02-28T11:37:30;95046.03;;;12.40;100.00
12785;BME280;6456;42.680;23.260;2023-02-28T11:39:59;95129.25;;;13.05;100.00
12785;BME280;6456;42.680;23.260;2023-02-28T11:42:54;95116.50;;;12.96;100.00
12785;BME280;6456;42.680;23.260;2023-02-28T11:48:22;95014.50;;;12.20;100.00
12785;BME280;6456;42.680;23.260;2023-02-28T11:50:59;95076.63;;;12.48;100.00
12785;BME280;6456;42.680;23.260;2023-02-28T11:53:45;95091.16;;;12.63;100.00
12785;BME280;6456;42.680;23.260;2023-02-28T11:56:21;94995.50;;;12.12;100.00
12785;BME280;6456;42.680;23.260;2023-02-28T11:58:58;95071.19;;;12.74;100.00
12785;BME280;6456;42.680;23.260;2023-02-28T12:01:38;95050.97;;;12.61;100.00
12785;BME280;6456;42.680;23.260;2023-02-28T12:04:17;95064.06;;;12.74;100.00
12785;BME280;6456;42.680;23.260;2023-02-28T12:06:54;95087.69;;;12.69;100.00
12785;BME280;6456;42.680;23.260;2023-02-28T12:09:37;95112.63;;;12.73;100.00
12785;BME280;6456;42.680;23.260;2023-02-28T12:12:19;95015.66;;;12.00;100.00
12785;BME280;6456;42.680;23.260;2023-02-28T12:15:16;95075.41;;;12.50;100.00
12785;BME280;6456;42.680;23.260;2023-02-28T12:17:52;95027.56;;;12.40;100.00
12785;BME280;6456;42.680;23.260;2023-02-28T12:20:28;95112.97;;;12.83;100.00
12785;BME280;6456;42.680;23.260;2023-02-28T12:23:10;95143.34;;;12.93;100.00
12785;BME280;6456;42.680;23.260;2023-02-28T12:25:49;95044.91;;;12.30;100.00
12785;BME280;6456;42.680;23.260;2023-02-28T12:28:24;95126.16;;;12.83;100.00
12785;BME280;6456;42.680;23.260;2023-02-28T12:30:56;94998.53;;;12.09;100.00
12785;BME280;6456;42.680;23.260;2023-02-28T12:33:28;95042.59;;;12.40;100.00
12785;BME280;6456;42.680;23.260;2023-02-28T12:36:02;95003.81;;;12.09;100.00
12785;BME280;6456;42.680;23.260;2023-02-28T12:38:34;95062.69;;;12.41;100.00
12785;BME280;6456;42.680;23.260;2023-02-28T12:41:06;95061.94;;;12.58;100.00
12785;BME280;6456;42.680;23.260;2023-02-28T12:43:42;95095.69;;;12.88;100.00
12785;BME280;6456;42.680;23.260;2023-02-28T12:46:13;95086.94;;;12.87;98.83
12785;BME280;6456;42.680;23.260;2023-02-28T12:48:44;95107.69;;;12.83;98.72
12785;BME280;6456;42.680;23.260;2023-02-28T12:51:13;95070.50;;;12.54;99.65
12785;BME280;6456;42.680;23.260;2023-02-28T12:53:52;95048.84;;;12.45;100.00
12785;BME280;6456;42.680;23.260;2023-02-28T12:56:30;95042.47;;;12.59;99.37
12785;BME280;6456;42.680;23.260;2023-02-28T12:59:04;95112.81;;;13.10;98.02
12785;BME280;6456;42.680;23.260;2023-02-28T13:02:02;95119.81;;;12.91;100.00
12785;BME280;6456;42.680;23.260;2023-02-28T13:10:47;95119.75;;;12.98;99.03
12785;BME280;6456;42.680;23.260;2023-02-28T13:13:17;95115.19;;;12.86;99.33
12785;BME280;6456;42.680;23.260;2023-02-28T13:16:01;95118.59;;;13.18;98.16
12785;BME280;6456;42.680;23.260;2023-02-28T13:18:31;95036.69;;;12.69;97.25
12785;BME280;6456;42.680;23.260;2023-02-28T13:21:00;95062.72;;;12.65;96.93
12785;BME280;6456;42.680;23.260;2023-02-28T13:23:58;95111.75;;;13.11;98.38
12785;BME280;6456;42.680;23.260;2023-02-28T13:29:31;95113.22;;;13.00;98.95
12785;BME280;6456;42.680;23.260;2023-02-28T13:32:30;95118.19;;;13.21;99.08